Time;durP1;ratioP1;P1;durP2;ratioP2;P2;SDS_P1;SDS_P2;PMS_P1;PMS_P2;Temp;Humidity;BMP_temperature;BMP_pressure;BME280_temperature;BME280_humidity;BME280_pressure;Samples;Min_cycle;Max_cycle;Signal;HPM_P1;HPM_P2
2021/05/31 00:01:36;;;;;;;29.37;9.30;;;7.30;92.60;;;;;;5033256;28;20206;-84
2021/05/31 00:04:02;;;;;;;13.27;9.33;;;7.20;92.70;;;;;;5033215;28;20568;-84
2021/05/31 00:06:28;;;;;;;11.13;9.50;;;7.30;93.00;;;;;;5033181;28;20711;-84
2021/05/31 00:08:53;;;;;;;26.03;12.47;;;7.40;93.10;;;;;;5033263;28;20199;-84
2021/05/31 00:11:20;;;;;;;20.10;10.77;;;7.50;93.20;;;;;;5033118;28;20517;-84
2021/05/31 00:13:47;;;;;;;19.47;10.50;;;7.50;93.20;;;;;;5015325;28;20207;-84
2021/05/31 00:16:14;;;;;;;16.07;9.67;;;7.30;93.00;;;;;;5015310;28;20176;-84
2021/05/31 00:18:40;;;;;;;10.33;9.23;;;7.30;92.90;;;;;;5033079;28;20228;-84
2021/05/31 00:21:05;;;;;;;13.33;9.60;;;7.20;92.80;;;;;;5033086;28;20179;-84
2021/05/31 00:23:31;;;;;;;10.40;9.30;;;7.20;92.90;;;;;;5033197;28;20171;-84
2021/05/31 00:25:57;;;;;;;17.50;10.73;;;7.20;92.90;;;;;;5015343;28;20179;-83
2021/05/31 00:28:23;;;;;;;17.80;12.67;;;7.20;92.90;;;;;;5015249;28;20194;-84
2021/05/31 00:30:49;;;;;;;20.70;13.23;;;7.30;93.00;;;;;;5033003;28;20551;-84
2021/05/31 00:33:14;;;;;;;19.83;13.17;;;7.50;93.10;;;;;;5015159;28;20691;-84
2021/05/31 00:35:40;;;;;;;18.20;15.33;;;7.60;93.00;;;;;;5015075;28;20217;-84
2021/05/31 00:38:05;;;;;;;27.30;16.27;;;7.70;93.00;;;;;;5032848;28;20192;-84
2021/05/31 00:40:31;;;;;;;24.70;16.90;;;7.80;92.90;;;;;;5032855;28;20181;-84
2021/05/31 00:42:57;;;;;;;30.23;18.10;;;8.00;93.00;;;;;;5015291;28;20176;-84
2021/05/31 00:45:23;;;;;;;29.47;19.17;;;8.20;92.90;;;;;;5032818;28;20219;-84
2021/05/31 00:47:50;;;;;;;36.90;20.43;;;8.20;92.80;;;;;;5015213;28;20661;-84
2021/05/31 00:50:17;;;;;;;28.47;18.23;;;8.30;92.70;;;;;;5032771;28;20172;-84
2021/05/31 00:52:42;;;;;;;26.93;18.33;;;8.30;92.60;;;;;;5033133;28;20572;-84
2021/05/31 00:55:09;;;;;;;26.10;18.17;;;8.40;92.50;;;;;;5032836;28;20279;-84
2021/05/31 00:57:35;;;;;;;30.17;18.57;;;8.40;92.50;;;;;;5034372;28;20203;-84
2021/05/31 01:00:04;;;;;;;30.43;18.87;;;8.40;92.50;;;;;;5018839;28;20230;-84
2021/05/31 01:02:29;;;;;;;27.40;19.23;;;8.50;92.50;;;;;;5018642;28;20660;-84
2021/05/31 01:04:55;;;;;;;26.83;17.97;;;8.50;92.40;;;;;;5036378;28;20192;-84
2021/05/31 01:07:34;;;;;;;26.87;18.03;;;8.50;92.20;;;;;;5018820;28;20279;-84
2021/05/31 01:10:16;;;;;;;30.53;16.87;;;8.50;92.10;;;;;;5036531;28;20625;-83
2021/05/31 01:13:06;;;;;;;24.00;17.63;;;8.50;92.00;;;;;;5036758;28;20215;-84
2021/05/31 01:15:38;;;;;;;20.53;15.33;;;8.50;91.90;;;;;;5036741;28;20280;-84
2021/05/31 01:18:24;;;;;;;18.87;14.20;;;8.40;91.90;;;;;;5036210;28;20181;-84
2021/05/31 01:21:16;;;;;;;18.73;12.70;;;8.30;91.80;;;;;;5036542;28;20161;-84
2021/05/31 01:23:46;;;;;;;17.17;12.93;;;8.30;91.70;;;;;;4981639;28;20189;-84
2021/05/31 01:26:21;;;;;;;18.60;13.83;;;8.30;91.70;;;;;;5036075;28;20618;-84
2021/05/31 01:28:53;;;;;;;19.40;14.80;;;8.30;91.60;;;;;;5018267;28;20176;-84
2021/05/31 01:31:25;;;;;;;16.60;13.43;;;8.20;91.40;;;;;;5035948;28;20199;-84
2021/05/31 01:33:53;;;;;;;15.83;12.67;;;8.20;91.30;;;;;;5018040;28;20211;-84
2021/05/31 01:36:21;;;;;;;18.37;13.60;;;8.10;91.10;;;;;;5036079;28;20167;-84
2021/05/31 01:38:49;;;;;;;20.47;13.90;;;8.10;90.90;;;;;;5018018;28;20180;-84
2021/05/31 01:41:15;;;;;;;17.33;13.40;;;8.00;90.60;;;;;;5036027;28;20197;-84
2021/05/31 01:43:44;;;;;;;18.40;13.93;;;8.00;90.50;;;;;;5017896;28;20218;-84
2021/05/31 01:46:10;;;;;;;18.20;14.17;;;7.90;90.30;;;;;;5017992;28;20559;-84
2021/05/31 01:48:37;;;;;;;21.20;13.90;;;7.90;90.10;;;;;;5035944;28;20195;-84
2021/05/31 01:51:03;;;;;;;18.57;13.37;;;8.00;90.00;;;;;;5035838;28;20173;-84
2021/05/31 01:53:32;;;;;;;15.73;13.73;;;8.00;89.60;;;;;;5035569;28;20234;-84
2021/05/31 01:55:58;;;;;;;15.33;13.53;;;7.90;89.20;;;;;;5035557;28;20176;-84
2021/05/31 01:58:25;;;;;;;19.93;13.03;;;7.90;89.00;;;;;;5035447;28;20193;-84
2021/05/31 02:00:51;;;;;;;16.30;13.37;;;7.90;88.80;;;;;;5035388;28;20525;-84
2021/05/31 02:03:16;;;;;;;24.50;15.57;;;7.80;88.50;;;;;;5035482;28;20265;-84
2021/05/31 02:05:42;;;;;;;21.50;14.80;;;7.90;89.50;;;;;;5017542;28;20257;-84
2021/05/31 02:08:08;;;;;;;22.53;14.43;;;7.80;90.30;;;;;;5034658;28;20191;-84
2021/05/31 02:10:33;;;;;;;18.93;13.53;;;7.70;90.80;;;;;;5034824;28;20590;-84
2021/05/31 02:13:03;;;;;;;23.47;14.90;;;7.60;91.10;;;;;;5017500;28;20180;-84
2021/05/31 02:15:38;;;;;;;24.43;13.27;;;7.50;91.40;;;;;;5035501;28;20655;-84
2021/05/31 02:18:18;;;;;;;20.70;14.77;;;7.40;91.60;;;;;;5017269;28;20200;-84
2021/05/31 02:20:46;;;;;;;18.70;13.87;;;7.30;91.60;;;;;;5035025;28;20221;-84
2021/05/31 02:23:14;;;;;;;20.80;13.07;;;7.10;91.50;;;;;;5034988;28;20204;-84
2021/05/31 02:25:40;;;;;;;30.80;15.57;;;7.00;91.50;;;;;;5017103;28;20203;-84
2021/05/31 02:28:06;;;;;;;26.30;16.37;;;7.00;92.10;;;;;;5017116;28;20183;-84
2021/05/31 02:30:33;;;;;;;21.47;14.77;;;7.10;92.40;;;;;;5034984;28;20172;-84
2021/05/31 02:33:01;;;;;;;25.30;15.40;;;7.00;92.40;;;;;;5017075;28;20223;-84
2021/05/31 02:35:29;;;;;;;31.43;18.37;;;6.90;92.20;;;;;;5124361;22;20258;-87
2021/05/31 02:37:55;;;;;;;29.07;16.40;;;7.00;92.40;;;;;;5033515;28;20586;-86
2021/05/31 02:40:22;;;;;;;20.80;16.13;;;6.90;92.50;;;;;;5034786;28;20167;-86
2021/05/31 02:43:00;;;;;;;24.73;15.53;;;6.80;92.30;;;;;;5017049;28;20172;-86
2021/05/31 02:45:27;;;;;;;29.03;17.07;;;6.60;92.20;;;;;;5016892;28;20199;-86
2021/05/31 02:47:55;;;;;;;28.73;18.47;;;6.50;92.30;;;;;;5016905;28;20179;-86
2021/05/31 02:50:21;;;;;;;40.00;21.00;;;6.40;92.30;;;;;;5016809;28;20182;-87
2021/05/31 02:52:47;;;;;;;48.87;22.97;;;6.60;92.50;;;;;;5034869;28;20179;-87
2021/05/31 02:55:16;;;;;;;39.00;23.67;;;6.70;92.60;;;;;;5016816;28;20197;-86
2021/05/31 02:57:42;;;;;;;42.07;23.17;;;6.80;92.70;;;;;;5034373;28;20198;-86
2021/05/31 03:00:11;;;;;;;41.40;23.60;;;6.90;92.80;;;;;;5016664;28;20267;-86
2021/05/31 03:02:37;;;;;;;35.47;19.40;;;7.10;92.80;;;;;;5016605;28;20252;-86
2021/05/31 03:05:06;;;;;;;23.53;17.80;;;7.10;92.70;;;;;;5034585;28;20342;-86
2021/05/31 03:07:31;;;;;;;23.73;16.73;;;7.00;92.60;;;;;;5016507;28;20215;-86
2021/05/31 03:09:57;;;;;;;23.47;17.80;;;7.10;92.50;;;;;;5016569;28;20258;-87
2021/05/31 03:12:23;;;;;;;29.70;17.33;;;7.00;92.50;;;;;;5034201;28;20302;-86
2021/05/31 03:14:51;;;;;;;26.23;17.17;;;7.20;92.60;;;;;;5016334;28;20210;-86
2021/05/31 03:17:17;;;;;;;23.27;15.03;;;7.40;92.90;;;;;;5016272;28;20200;-86
2021/05/31 03:19:43;;;;;;;23.57;17.23;;;7.60;93.10;;;;;;5034066;28;20168;-86
2021/05/31 03:22:08;;;;;;;28.60;17.77;;;7.80;92.90;;;;;;5033981;28;20176;-86
2021/05/31 03:24:34;;;;;;;30.07;17.50;;;8.00;92.20;;;;;;5016199;28;20198;-86
2021/05/31 03:27:00;;;;;;;23.00;16.40;;;7.90;91.10;;;;;;5034224;28;20172;-86
2021/05/31 03:29:25;;;;;;;24.77;17.83;;;7.90;90.00;;;;;;5034018;28;20550;-86
2021/05/31 03:31:51;;;;;;;23.23;17.03;;;8.00;89.00;;;;;;5034055;28;20181;-86
2021/05/31 03:34:16;;;;;;;23.27;16.20;;;8.10;88.10;;;;;;5034191;28;20175;-86
2021/05/31 03:36:42;;;;;;;28.03;16.37;;;8.20;87.70;;;;;;5033780;28;20192;-86
2021/05/31 03:39:08;;;;;;;25.17;17.63;;;8.20;87.00;;;;;;5015993;28;20179;-86
2021/05/31 03:41:34;;;;;;;25.80;17.23;;;8.40;86.30;;;;;;5033786;28;20172;-86
2021/05/31 03:44:00;;;;;;;20.83;16.20;;;8.50;85.80;;;;;;5015956;28;20180;-86
2021/05/31 03:46:26;;;;;;;26.93;16.70;;;8.60;85.60;;;;;;5015864;28;20172;-86
2021/05/31 03:48:52;;;;;;;23.73;16.27;;;8.80;85.00;;;;;;5015918;28;20173;-86
2021/05/31 03:51:21;;;;;;;19.90;15.00;;;8.90;84.40;;;;;;5015822;28;20176;-86
2021/05/31 03:53:47;;;;;;;21.97;16.87;;;9.20;83.80;;;;;;5015887;28;20180;-87
2021/05/31 03:56:12;;;;;;;28.97;19.83;;;9.30;83.50;;;;;;5015723;28;20192;-86
2021/05/31 03:58:40;;;;;;;32.83;19.97;;;9.20;84.50;;;;;;5015690;28;20196;-86
2021/05/31 04:01:07;;;;;;;31.67;20.33;;;9.30;85.30;;;;;;5033380;28;20514;-86
2021/05/31 04:03:35;;;;;;;32.27;20.60;;;9.20;86.90;;;;;;5033329;28;20547;-87
2021/05/31 04:11:37;;;;;;;31.27;20.83;;;9.10;88.90;;;;;;5033262;28;20639;-86
2021/05/31 04:14:05;;;;;;;35.10;23.40;;;9.20;89.30;;;;;;5015527;28;20172;-86
2021/05/31 04:16:32;;;;;;;35.80;21.80;;;9.20;89.60;;;;;;5016457;28;20254;-86
2021/05/31 04:18:58;;;;;;;38.07;22.40;;;9.20;89.80;;;;;;5015522;28;20177;-87
2021/05/31 04:21:24;;;;;;;37.70;22.70;;;9.20;90.00;;;;;;5015508;28;20656;-87
2021/05/31 04:23:49;;;;;;;33.27;20.90;;;9.30;90.10;;;;;;5033078;28;20652;-86
2021/05/31 04:26:15;;;;;;;27.30;19.83;;;9.50;90.10;;;;;;5015339;28;20203;-86
2021/05/31 04:28:41;;;;;;;26.63;19.50;;;9.50;89.30;;;;;;5015412;28;20184;-87
2021/05/31 04:31:06;;;;;;;26.47;18.40;;;9.60;88.70;;;;;;5033270;28;20252;-86
2021/05/31 04:33:32;;;;;;;29.00;18.73;;;9.60;88.10;;;;;;5018817;28;20706;-87
2021/05/31 04:35:57;;;;;;;25.47;18.00;;;9.80;87.40;;;;;;5036988;28;20700;-87
2021/05/31 04:38:24;;;;;;;23.33;17.43;;;9.80;87.00;;;;;;5036945;28;20667;-87
2021/05/31 04:40:50;;;;;;;25.30;17.27;;;9.80;86.60;;;;;;5019239;28;20177;-87
2021/05/31 04:43:15;;;;;;;29.43;19.73;;;9.90;86.20;;;;;;5019242;28;20287;-87
2021/05/31 04:45:41;;;;;;;28.00;19.37;;;9.90;86.20;;;;;;5037071;28;20196;-86
2021/05/31 04:48:07;;;;;;;32.60;22.73;;;9.80;86.80;;;;;;5036901;28;20180;-86
2021/05/31 04:50:32;;;;;;;32.87;20.07;;;9.70;87.90;;;;;;5036860;28;20251;-87
2021/05/31 04:52:58;;;;;;;27.17;18.93;;;9.70;88.40;;;;;;5019042;28;20185;-87
2021/05/31 04:55:23;;;;;;;28.50;20.17;;;9.70;88.30;;;;;;5019308;28;20206;-87
2021/05/31 04:57:49;;;;;;;31.03;20.77;;;9.80;88.10;;;;;;5036656;28;20291;-87
2021/05/31 05:00:16;;;;;;;31.50;20.60;;;9.80;88.10;;;;;;5036953;28;20176;-87
2021/05/31 05:02:41;;;;;;;27.07;19.60;;;9.80;88.00;;;;;;5036616;28;20200;-87
2021/05/31 05:05:08;;;;;;;28.97;18.77;;;9.80;88.10;;;;;;5036484;28;20243;-87
2021/05/31 05:07:34;;;;;;;28.03;18.83;;;9.80;88.00;;;;;;5018837;28;20668;-87
2021/05/31 05:09:59;;;;;;;27.53;20.27;;;9.80;87.90;;;;;;5018795;28;20185;-87
2021/05/31 05:12:25;;;;;;;31.33;19.70;;;9.90;88.00;;;;;;5018996;28;20173;-87
2021/05/31 05:14:52;;;;;;;35.30;23.07;;;9.90;88.50;;;;;;5018703;28;20797;-86
2021/05/31 05:17:17;;;;;;;32.70;22.30;;;10.20;90.30;;;;;;5036244;28;20200;-86
2021/05/31 05:19:43;;;;;;;33.23;22.37;;;10.40;90.60;;;;;;5018558;28;20173;-87
2021/05/31 05:22:08;;;;;;;39.50;23.23;;;10.40;90.60;;;;;;5018603;28;20234;-87
2021/05/31 05:24:34;;;;;;;31.03;22.70;;;10.50;90.70;;;;;;5036166;28;20207;-86
2021/05/31 05:27:05;;;;;;;33.67;22.73;;;10.60;90.70;;;;;;5036434;28;20231;-87
2021/05/31 05:29:31;;;;;;;35.30;22.03;;;10.70;90.90;;;;;;5018456;28;20238;-87
2021/05/31 05:31:57;;;;;;;35.60;21.53;;;10.80;90.70;;;;;;5018370;28;20196;-87
2021/05/31 05:34:23;;;;;;;33.77;21.23;;;10.90;90.70;;;;;;5018257;28;20718;-86
2021/05/31 05:37:26;;;;;;;32.20;21.20;;;11.10;90.80;;;;;;5018296;28;20345;-87
2021/05/31 05:42:32;;;;;;;30.33;20.97;;;11.30;90.40;;;;;;5036557;28;20168;-87
2021/05/31 05:47:47;;;;;;;33.07;19.17;;;11.70;89.70;;;;;;5035864;28;20552;-87
2021/05/31 05:50:18;;;;;;;25.93;18.87;;;11.80;89.40;;;;;;5018599;28;20172;-87
2021/05/31 05:52:44;;;;;;;29.60;17.93;;;12.00;89.40;;;;;;5018054;28;20181;-87
2021/05/31 05:55:11;;;;;;;21.43;16.20;;;12.10;89.30;;;;;;5017922;28;20205;-87
2021/05/31 05:57:39;;;;;;;23.33;16.47;;;12.30;89.00;;;;;;5017749;28;20204;-87
2021/05/31 06:00:10;;;;;;;24.97;15.87;;;12.40;88.70;;;;;;5017942;28;20596;-87
2021/05/31 06:02:36;;;;;;;20.73;15.67;;;12.60;88.40;;;;;;5035570;28;20175;-88
2021/05/31 06:05:02;;;;;;;17.63;12.23;;;12.50;87.40;;;;;;5017761;28;20280;-87
2021/05/31 06:07:28;;;;;;;16.80;12.47;;;12.50;85.90;;;;;;5035696;28;20176;-87
2021/05/31 06:09:54;;;;;;;18.53;12.90;;;12.40;84.30;;;;;;5035457;28;20579;-87
2021/05/31 06:12:19;;;;;;;16.17;11.90;;;12.40;83.80;;;;;;5017697;28;20180;-87
2021/05/31 06:14:45;;;;;;;14.73;11.17;;;12.50;84.80;;;;;;5018076;28;20251;-87
2021/05/31 06:17:11;;;;;;;16.60;11.43;;;12.80;85.20;;;;;;5017408;28;20200;-87
2021/05/31 06:19:37;;;;;;;16.50;10.87;;;12.90;84.80;;;;;;5035504;28;20218;-88
2021/05/31 06:22:03;;;;;;;14.13;10.30;;;13.20;83.10;;;;;;5017593;28;20181;-88
2021/05/31 06:24:28;;;;;;;14.20;10.97;;;13.30;82.40;;;;;;5017363;28;20197;-87
2021/05/31 06:26:54;;;;;;;13.67;9.87;;;13.30;81.20;;;;;;5035073;28;20188;-88
2021/05/31 06:29:19;;;;;;;10.20;8.20;;;13.30;81.30;;;;;;5017601;28;20555;-88
2021/05/31 06:31:45;;;;;;;13.73;8.33;;;13.50;80.60;;;;;;5017226;28;20550;-87
2021/05/31 06:34:11;;;;;;;9.23;7.83;;;13.40;78.40;;;;;;5017164;28;20189;-87
2021/05/31 06:36:41;;;;;;;10.37;8.57;;;13.60;79.10;;;;;;5034804;28;20203;-88
2021/05/31 06:39:08;;;;;;;9.43;7.00;;;13.70;78.60;;;;;;5017150;28;20176;-88
2021/05/31 06:41:38;;;;;;;13.83;7.90;;;13.90;77.30;;;;;;5017096;28;20177;-88
2021/05/31 06:44:05;;;;;;;10.67;6.90;;;14.00;76.10;;;;;;5017775;28;20528;-87
2021/05/31 06:46:31;;;;;;;10.77;7.13;;;14.20;74.00;;;;;;5034705;28;20173;-88
2021/05/31 06:48:57;;;;;;;11.53;6.60;;;13.90;75.00;;;;;;5016954;28;20185;-88
2021/05/31 06:51:23;;;;;;;10.73;6.43;;;13.80;75.10;;;;;;5034678;28;20227;-88
2021/05/31 06:53:49;;;;;;;7.87;5.90;;;14.00;76.00;;;;;;5016943;28;20279;-88
2021/05/31 06:56:16;;;;;;;12.93;6.57;;;14.20;72.90;;;;;;5016153;28;20286;-88
2021/05/31 06:58:42;;;;;;;11.03;7.43;;;14.20;71.90;;;;;;5016679;28;20235;-88
2021/05/31 07:01:10;;;;;;;10.03;7.53;;;14.30;73.70;;;;;;5016693;28;20173;-87
2021/05/31 07:03:36;;;;;;;16.07;8.00;;;14.30;72.60;;;;;;5016665;28;20177;-88
2021/05/31 07:06:03;;;;;;;11.47;8.13;;;14.60;74.00;;;;;;5016690;28;20204;-88
2021/05/31 07:08:30;;;;;;;12.20;7.57;;;14.60;74.30;;;;;;5034569;28;20188;-88
2021/05/31 07:10:57;;;;;;;10.60;7.40;;;14.80;73.50;;;;;;5034535;28;20250;-88
2021/05/31 07:13:24;;;;;;;9.13;7.33;;;15.00;73.00;;;;;;5016481;28;20235;-88
2021/05/31 07:15:51;;;;;;;9.40;7.50;;;15.00;70.20;;;;;;5016373;28;20228;-88
2021/05/31 07:18:19;;;;;;;12.87;7.70;;;14.90;72.40;;;;;;5016381;28;20201;-88
2021/05/31 07:20:46;;;;;;;11.73;8.03;;;15.00;71.40;;;;;;5034082;28;20176;-88
2021/05/31 07:23:12;;;;;;;12.83;7.77;;;15.10;71.10;;;;;;5034020;28;20247;-88
2021/05/31 07:25:37;;;;;;;10.87;7.07;;;15.30;72.20;;;;;;5016589;28;20667;-88
2021/05/31 07:28:03;;;;;;;10.37;5.50;;;15.30;70.70;;;;;;5034013;28;20172;-88
2021/05/31 07:30:29;;;;;;;10.80;5.63;;;15.50;66.80;;;;;;5016272;28;20231;-88
2021/05/31 07:32:55;;;;;;;8.17;4.87;;;15.60;64.60;;;;;;5016148;28;20564;-88
2021/05/31 07:35:21;;;;;;;12.23;5.53;;;15.70;65.10;;;;;;5033888;28;20224;-88
2021/05/31 07:37:46;;;;;;;12.38;5.28;;;15.90;65.70;;;;;;5033727;28;20197;-88
2021/05/31 07:40:14;;;;;;;8.40;5.40;;;15.90;64.80;;;;;;5016118;28;20185;-89
2021/05/31 07:42:41;;;;;;;12.77;6.25;;;15.90;63.30;;;;;;5016031;28;20184;-89
2021/05/31 07:45:09;;;;;;;6.70;5.10;;;16.00;65.30;;;;;;5015957;28;20691;-89
2021/05/31 07:47:35;;;;;;;7.30;5.60;;;16.10;65.10;;;;;;5016170;28;20625;-89
2021/05/31 07:50:02;;;;;;;10.75;5.78;;;16.20;63.80;;;;;;5033611;28;20256;-89
2021/05/31 07:52:28;;;;;;;6.93;5.25;;;16.20;63.50;;;;;;5034039;28;20189;-89
2021/05/31 07:54:55;;;;;;;8.48;6.18;;;16.30;64.30;;;;;;5033773;28;20238;-88
2021/05/31 07:57:22;;;;;;;9.05;6.00;;;16.30;62.30;;;;;;5033438;28;20188;-88
2021/05/31 07:59:48;;;;;;;11.55;6.25;;;16.30;63.50;;;;;;5033549;28;20176;-88
2021/05/31 08:02:14;;;;;;;12.02;5.47;;;16.40;62.10;;;;;;5015836;28;20201;-88
2021/05/31 08:04:41;;;;;;;8.55;5.80;;;16.40;63.40;;;;;;5033662;28;20267;-88
2021/05/31 08:07:09;;;;;;;9.80;5.93;;;16.60;63.20;;;;;;5014825;28;20177;-89
2021/05/31 08:09:35;;;;;;;9.35;5.88;;;16.60;62.00;;;;;;5015649;28;20215;-89
2021/05/31 08:12:01;;;;;;;10.73;5.70;;;16.70;61.60;;;;;;5033369;28;20544;-89
2021/05/31 08:14:27;;;;;;;12.27;5.93;;;16.80;63.20;;;;;;5033322;28;20189;-89
2021/05/31 08:16:53;;;;;;;9.23;6.28;;;16.80;61.10;;;;;;5015596;28;20595;-88
2021/05/31 08:19:20;;;;;;;8.63;6.20;;;16.90;64.40;;;;;;5015558;28;20176;-88
2021/05/31 08:21:46;;;;;;;10.15;5.75;;;17.00;61.80;;;;;;5033449;28;20172;-91
2021/05/31 08:24:12;;;;;;;13.32;5.57;;;17.20;63.40;;;;;;5015611;28;20263;-91
2021/05/31 08:26:39;;;;;;;8.32;5.05;;;17.20;58.90;;;;;;5015962;28;20707;-89
2021/05/31 08:29:05;;;;;;;8.05;5.50;;;17.10;59.10;;;;;;5015696;28;20256;-89
2021/05/31 08:31:31;;;;;;;6.43;5.00;;;17.20;62.70;;;;;;5015816;28;20172;-89
2021/05/31 08:33:58;;;;;;;7.47;4.65;;;17.50;62.30;;;;;;5015744;28;20592;-89
2021/05/31 08:36:24;;;;;;;10.95;5.18;;;17.70;59.40;;;;;;5015645;28;20204;-89
2021/05/31 08:38:52;;;;;;;7.55;4.47;;;17.80;61.60;;;;;;5015839;28;20196;-89
2021/05/31 08:41:18;;;;;;;6.57;4.47;;;17.80;57.30;;;;;;5015702;28;20169;-88
2021/05/31 08:43:44;;;;;;;7.57;4.82;;;17.90;57.10;;;;;;5015812;28;20173;-89
2021/05/31 08:46:10;;;;;;;7.57;4.53;;;18.10;57.20;;;;;;5015657;28;20195;-89
2021/05/31 08:48:36;;;;;;;4.93;3.90;;;18.20;57.10;;;;;;5015761;28;20219;-88
2021/05/31 08:51:02;;;;;;;5.18;3.47;;;18.40;56.30;;;;;;5015889;28;20234;-89
2021/05/31 08:53:28;;;;;;;5.45;3.40;;;18.40;51.70;;;;;;5016489;28;20172;-89
2021/05/31 08:55:53;;;;;;;4.75;2.85;;;18.40;50.50;;;;;;5015616;28;20232;-89
2021/05/31 08:58:19;;;;;;;4.13;2.53;;;18.50;49.30;;;;;;5015560;28;20201;-89
2021/05/31 09:00:45;;;;;;;6.38;2.17;;;18.60;49.40;;;;;;5016041;28;20179;-88
2021/05/31 09:03:11;;;;;;;7.80;2.25;;;18.50;50.50;;;;;;5015621;28;20176;-89
2021/05/31 09:05:42;;;;;;;4.88;1.83;;;18.70;44.30;;;;;;5015389;28;20692;-89
2021/05/31 09:08:15;;;;;;;3.22;1.95;;;18.70;44.10;;;;;;5015488;28;20176;-89
2021/05/31 09:10:47;;;;;;;4.10;1.83;;;18.70;43.20;;;;;;5015491;28;20183;-88
2021/05/31 09:13:30;;;;;;;8.32;2.67;;;18.90;45.20;;;;;;5015361;28;20181;-89
2021/05/31 09:16:06;;;;;;;2.67;2.25;;;18.90;43.80;;;;;;5015305;28;20226;-89
2021/05/31 09:18:32;;;;;;;5.70;2.25;;;19.00;44.30;;;;;;5016823;28;20200;-89
2021/05/31 09:21:08;;;;;;;6.10;2.20;;;19.10;45.70;;;;;;5019092;28;20708;-89
2021/05/31 09:23:36;;;;;;;3.47;2.33;;;19.30;45.50;;;;;;5019198;28;20176;-89
2021/05/31 09:26:06;;;;;;;4.28;2.28;;;19.30;43.30;;;;;;5019144;28;20200;-89
2021/05/31 09:28:31;;;;;;;2.95;2.17;;;19.30;45.70;;;;;;5018926;28;20177;-89
2021/05/31 09:30:57;;;;;;;3.63;2.00;;;19.50;44.30;;;;;;5019007;28;20184;-89
2021/05/31 09:33:23;;;;;;;3.65;2.13;;;19.60;44.90;;;;;;5018878;28;20266;-90
2021/05/31 09:35:50;;;;;;;4.43;1.85;;;19.60;45.90;;;;;;5018990;28;20699;-89
2021/05/31 09:38:17;;;;;;;3.83;2.40;;;19.80;47.50;;;;;;5018675;28;20196;-89
2021/05/31 09:40:53;;;;;;;3.35;2.15;;;19.90;44.90;;;;;;5018933;28;20204;-90
2021/05/31 09:43:21;;;;;;;3.28;2.15;;;20.10;47.00;;;;;;5018992;28;20172;-88
2021/05/31 09:45:48;;;;;;;5.78;2.50;;;20.10;47.30;;;;;;5035701;28;20409;-88
2021/05/31 09:48:14;;;;;;;4.60;2.33;;;20.00;41.60;;;;;;5018489;28;20183;-88
2021/05/31 09:50:40;;;;;;;5.40;2.40;;;19.90;45.10;;;;;;5018590;28;20188;-88
2021/05/31 09:53:10;;;;;;;3.25;2.35;;;20.10;45.00;;;;;;5018404;28;20231;-89
2021/05/31 09:55:41;;;;;;;3.40;2.28;;;20.10;46.20;;;;;;5018087;28;20688;-89
2021/05/31 09:58:09;;;;;;;4.55;2.60;;;20.30;47.40;;;;;;5018240;28;20091;-89
2021/05/31 10:00:35;;;;;;;3.10;2.22;;;20.30;43.10;;;;;;5018354;28;20547;-90
2021/05/31 10:05:58;;;;;;;4.38;2.28;;;20.60;46.30;;;;;;5036005;28;20235;-89
2021/05/31 10:10:56;;;;;;;5.80;2.35;;;20.80;47.10;;;;;;5035919;28;20253;-89
2021/05/31 10:13:25;;;;;;;5.82;2.45;;;20.70;45.10;;;;;;5018012;28;20661;-90
2021/05/31 10:15:53;;;;;;;3.50;2.38;;;20.60;45.00;;;;;;5018118;28;20266;-89
2021/05/31 10:18:19;;;;;;;5.85;2.90;;;20.50;46.20;;;;;;5017959;28;20199;-90
2021/05/31 10:20:46;;;;;;;8.98;2.70;;;20.60;46.30;;;;;;5018169;28;20259;-90
2021/05/31 10:23:13;;;;;;;3.58;2.20;;;20.70;43.40;;;;;;5018288;28;20177;-89
2021/05/31 10:25:45;;;;;;;7.25;2.40;;;20.70;46.70;;;;;;5018313;28;20188;-89
2021/05/31 10:28:20;;;;;;;5.60;2.55;;;20.70;45.00;;;;;;5017589;28;20177;-89
2021/05/31 10:30:49;;;;;;;7.57;2.70;;;20.80;45.70;;;;;;5017542;28;20180;-89
2021/05/31 10:33:21;;;;;;;5.25;2.47;;;21.00;44.10;;;;;;5017649;28;20172;-89
2021/05/31 10:35:49;;;;;;;6.70;2.45;;;21.00;43.70;;;;;;5017604;28;20208;-88
2021/05/31 10:38:19;;;;;;;4.43;2.65;;;20.90;44.90;;;;;;5016733;28;20435;-88
2021/05/31 10:40:54;;;;;;;15.18;2.90;;;20.90;43.30;;;;;;5015527;28;21008;-88
2021/05/31 10:43:25;;;;;;;6.50;2.92;;;20.90;41.80;;;;;;5016042;28;20452;-88
2021/05/31 10:46:02;;;;;;;8.75;3.00;;;21.30;44.20;;;;;;5016275;28;20416;-88
2021/05/31 10:48:31;;;;;;;4.90;2.60;;;21.60;46.50;;;;;;5033574;28;20460;-88
2021/05/31 10:50:59;;;;;;;4.30;2.75;;;21.70;46.10;;;;;;5017116;28;20445;-87
2021/05/31 10:53:37;;;;;;;4.03;2.53;;;21.60;42.90;;;;;;5015498;28;20921;-88
2021/05/31 10:56:20;;;;;;;4.82;2.88;;;21.70;46.60;;;;;;5015885;28;20421;-88
2021/05/31 10:58:52;;;;;;;4.45;2.85;;;21.60;44.60;;;;;;5017069;28;20710;-88
2021/05/31 11:01:25;;;;;;;9.80;3.10;;;21.60;45.90;;;;;;5034731;28;20649;-88
2021/05/31 11:04:26;;;;;;;12.35;2.92;;;21.40;45.80;;;;;;5016858;28;20252;-89
2021/05/31 11:06:54;;;;;;;3.58;2.58;;;21.30;43.80;;;;;;5007211;28;20185;-90
2021/05/31 11:09:23;;;;;;;6.90;3.17;;;21.50;45.60;;;;;;5017678;28;20173;-89
2021/05/31 11:11:55;;;;;;;8.65;3.03;;;21.30;41.70;;;;;;5016311;28;20916;-88
2021/05/31 11:14:38;;;;;;;5.35;2.90;;;21.40;44.30;;;;;;5015317;28;20413;-89
2021/05/31 11:17:12;;;;;;;8.27;3.50;;;21.70;46.10;;;;;;5015535;28;20425;-89
2021/05/31 11:19:45;;;;;;;6.03;3.00;;;21.90;45.20;;;;;;5033445;28;20397;-89
2021/05/31 11:22:32;;;;;;;3.45;2.40;;;22.00;45.30;;;;;;5016400;28;20476;-89
2021/05/31 11:25:06;;;;;;;4.68;2.70;;;22.00;47.70;;;;;;5016706;28;20220;-89
2021/05/31 11:27:39;;;;;;;5.35;2.92;;;22.10;43.20;;;;;;5015389;28;20413;-89
2021/05/31 11:30:16;;;;;;;5.20;2.63;;;21.90;43.80;;;;;;5034136;28;20644;-89
2021/05/31 11:32:42;;;;;;;4.80;2.90;;;21.90;46.10;;;;;;5015926;28;20451;-89
2021/05/31 11:35:12;;;;;;;4.20;2.22;;;22.00;45.20;;;;;;5016382;28;20268;-89
2021/05/31 11:37:37;;;;;;;7.37;2.80;;;22.00;45.40;;;;;;5016293;28;20433;-89
2021/05/31 11:40:14;;;;;;;5.13;2.85;;;21.70;41.60;;;;;;5016611;28;20180;-89
2021/05/31 11:42:53;;;;;;;5.72;3.03;;;21.90;43.20;;;;;;5016029;28;20200;-89
2021/05/31 11:45:21;;;;;;;5.85;2.63;;;22.40;43.20;;;;;;5016112;28;20200;-90
2021/05/31 11:47:57;;;;;;;4.13;2.70;;;22.20;43.40;;;;;;5033806;28;20173;-89
2021/05/31 11:50:23;;;;;;;4.20;2.53;;;22.20;45.30;;;;;;5016139;28;20183;-88
2021/05/31 11:52:49;;;;;;;4.18;2.72;;;22.20;45.60;;;;;;5016271;28;20184;-88
2021/05/31 11:55:26;;;;;;;4.63;2.83;;;22.10;45.00;;;;;;5016071;28;20288;-88
2021/05/31 11:57:52;;;;;;;7.20;3.53;;;22.20;45.80;;;;;;5034000;28;20192;-88
2021/05/31 12:00:22;;;;;;;2.85;2.40;;;22.40;43.20;;;;;;5016064;28;20205;-89
2021/05/31 12:02:48;;;;;;;4.82;2.28;;;22.40;44.30;;;;;;5016115;28;20177;-88
2021/05/31 12:05:15;;;;;;;4.05;2.50;;;22.40;44.20;;;;;;5015851;28;20664;-88
2021/05/31 12:07:45;;;;;;;3.92;2.50;;;22.40;43.10;;;;;;5015941;28;20185;-89
2021/05/31 12:10:12;;;;;;;10.90;3.33;;;22.20;42.20;;;;;;5016180;28;20625;-89
2021/05/31 12:12:40;;;;;;;8.73;2.88;;;22.40;45.20;;;;;;5016188;28;20181;-89
2021/05/31 12:15:06;;;;;;;4.45;2.90;;;22.60;46.20;;;;;;5015675;28;20274;-89
2021/05/31 12:17:32;;;;;;;7.77;2.97;;;22.50;41.40;;;;;;5015312;28;20509;-90
2021/05/31 12:19:58;;;;;;;5.45;2.85;;;22.50;45.30;;;;;;5015135;28;20468;-89
2021/05/31 12:22:28;;;;;;;4.88;2.80;;;22.70;43.20;;;;;;5014549;28;20405;-90
2021/05/31 12:24:56;;;;;;;6.30;2.60;;;22.50;41.60;;;;;;5014444;28;20420;-89
2021/05/31 12:27:28;;;;;;;7.85;3.03;;;22.70;43.90;;;;;;5014733;28;20471;-89
2021/05/31 12:29:55;;;;;;;6.53;3.00;;;22.80;41.80;;;;;;5014739;28;20921;-89
2021/05/31 12:32:23;;;;;;;6.95;3.08;;;22.90;45.50;;;;;;5015406;28;20409;-89
2021/05/31 12:34:49;;;;;;;8.88;3.22;;;23.00;44.20;;;;;;5015565;28;20579;-90
2021/05/31 12:37:27;;;;;;;5.38;2.63;;;23.10;44.10;;;;;;5015773;28;20188;-89
2021/05/31 12:39:53;;;;;;;4.22;2.88;;;23.00;41.70;;;;;;5015530;28;20172;-89
2021/05/31 12:42:28;;;;;;;6.40;3.28;;;22.90;43.90;;;;;;5015457;28;20173;-89
2021/05/31 12:45:06;;;;;;;4.32;2.95;;;22.80;44.30;;;;;;5016011;28;20199;-90
2021/05/31 12:47:43;;;;;;;4.72;3.35;;;22.90;43.40;;;;;;5015948;28;20169;-89
2021/05/31 12:50:14;;;;;;;7.13;3.08;;;23.10;43.80;;;;;;5015569;28;20175;-89
2021/05/31 12:52:43;;;;;;;5.90;2.93;;;23.10;43.90;;;;;;5014929;28;20413;-89
2021/05/31 12:55:16;;;;;;;6.93;3.70;;;22.90;42.40;;;;;;5018118;28;20780;-89
2021/05/31 12:57:47;;;;;;;3.80;3.05;;;22.80;43.50;;;;;;5019276;28;20196;-89
2021/05/31 13:00:19;;;;;;;4.80;2.80;;;23.00;46.20;;;;;;5019463;28;20165;-89
2021/05/31 13:02:54;;;;;;;6.85;3.08;;;23.10;44.80;;;;;;5019387;28;20193;-89